createdAt,value
2019-05-06T00:01:49.163Z,106.77
2019-05-06T00:04:54.344Z,107.39
2019-05-06T00:07:59.524Z,108.92
2019-05-06T00:11:04.960Z,107.93
2019-05-06T00:14:10.219Z,106.83
2019-05-06T00:17:15.367Z,103.50
2019-05-06T00:20:20.523Z,101.91
2019-05-06T00:23:30.267Z,102.98
2019-05-06T00:27:04.713Z,103.03
2019-05-06T00:30:10.453Z,103.48
2019-05-06T00:33:15.679Z,105.27
2019-05-06T00:36:23.700Z,105.95
2019-05-06T00:39:50.745Z,107.91
2019-05-06T00:42:59.860Z,107.77
2019-05-06T00:46:05.067Z,107.22
2019-05-06T00:49:11.268Z,105.94
2019-05-06T00:52:16.466Z,104.84
2019-05-06T00:55:21.624Z,105.45
2019-05-06T00:58:26.729Z,106.68
2019-05-06T01:01:34.258Z,107.19
2019-05-06T01:04:40.389Z,106.21
2019-05-06T01:07:45.667Z,106.06
2019-05-06T01:10:50.817Z,106.51
2019-05-06T01:14:07.002Z,105.13
2019-05-06T01:17:13.410Z,105.11
2019-05-06T01:20:18.607Z,102.73
2019-05-06T01:23:23.754Z,101.30
2019-05-06T01:26:28.854Z,102.31
2019-05-06T01:29:34.751Z,100.33
2019-05-06T01:32:41.156Z,99.95
2019-05-06T01:35:46.288Z,98.95
2019-05-06T01:38:58.787Z,99.61
2019-05-06T01:42:09.564Z,99.11
2019-05-06T01:45:14.702Z,98.93
2019-05-06T01:48:38.754Z,98.96
2019-05-06T01:51:44.857Z,100.64
2019-05-06T01:54:50.242Z,101.27
2019-05-06T01:57:55.352Z,102.24
2019-05-06T02:01:00.559Z,102.93
2019-05-06T02:04:05.765Z,103.80
2019-05-06T02:07:10.978Z,104.63
2019-05-06T02:10:17.302Z,104.98
2019-05-06T02:13:23.917Z,104.71
2019-05-06T02:16:29.168Z,104.62
2019-05-06T02:19:35.199Z,103.13
2019-05-06T02:23:05.474Z,103.81
2019-05-06T02:26:10.719Z,103.49
2019-05-06T02:29:20.455Z,104.08
2019-05-06T02:32:42.040Z,103.32
2019-05-06T02:36:06.586Z,103.58
2019-05-06T02:39:14.035Z,105.83
2019-05-06T02:42:18.879Z,105.38
2019-05-06T02:45:24.412Z,105.54
2019-05-06T02:48:43.287Z,103.92
2019-05-06T02:51:48.089Z,104.45
2019-05-06T02:54:53.839Z,103.87
2019-05-06T02:57:59.181Z,104.09
2019-05-06T03:01:04.383Z,104.53
2019-05-06T03:04:09.573Z,104.26
2019-05-06T03:07:14.824Z,104.36
2019-05-06T03:10:24.379Z,104.27
2019-05-06T03:13:29.663Z,104.23
2019-05-06T03:16:34.848Z,105.20
2019-05-06T03:19:45.673Z,105.19
2019-05-06T03:23:03.718Z,105.74
2019-05-06T03:26:09.142Z,106.19
2019-05-06T03:29:14.386Z,106.24
2019-05-06T03:32:24.747Z,106.35
2019-05-06T03:35:42.164Z,106.48
2019-05-06T03:38:33.831Z,106.53
2019-05-06T03:41:39.095Z,107.13
2019-05-06T03:44:46.479Z,106.88
2019-05-06T03:47:56.720Z,107.28
2019-05-06T03:51:04.137Z,107.50
2019-05-06T03:54:09.057Z,107.55
2019-05-06T03:57:14.688Z,107.24
2019-05-06T04:00:19.834Z,107.58
2019-05-06T04:03:42.636Z,107.86
2019-05-06T04:06:33.279Z,108.40
2019-05-06T04:09:38.847Z,108.41
2019-05-06T04:12:45.289Z,108.12
2019-05-06T04:15:58.273Z,108.44
2019-05-06T04:19:12.812Z,108.91
2019-05-06T04:22:33.277Z,108.64
2019-05-06T04:25:53.688Z,107.96
2019-05-06T04:28:58.936Z,108.08
2019-05-06T04:32:04.517Z,107.85
2019-05-06T04:35:13.228Z,108.18
2019-05-06T04:38:17.689Z,108.44
2019-05-06T04:41:26.527Z,107.45
2019-05-06T04:44:32.837Z,106.71
2019-05-06T04:47:37.283Z,106.69
2019-05-06T04:50:44.289Z,106.11
2019-05-06T04:53:49.539Z,105.72
2019-05-06T04:56:54.778Z,105.74
2019-05-06T05:00:00.079Z,105.72
2019-05-06T05:03:05.791Z,105.44
2019-05-06T05:06:13.455Z,104.71
2019-05-06T05:09:19.465Z,105.64
2019-05-06T05:12:33.468Z,105.25
2019-05-06T05:15:44.189Z,106.17
2019-05-06T05:18:56.009Z,105.55
2019-05-06T05:22:07.453Z,104.12
2019-05-06T05:25:12.693Z,104.93
2019-05-06T05:28:17.829Z,103.83
2019-05-06T05:31:23.106Z,104.62
2019-05-06T05:34:39.545Z,103.83
2019-05-06T05:37:35.210Z,103.23
2019-05-06T05:40:42.833Z,101.49
2019-05-06T05:44:11.998Z,103.25
2019-05-06T05:47:17.355Z,101.91
2019-05-06T05:50:32.677Z,100.70
2019-05-06T05:53:37.869Z,99.20
2019-05-06T05:56:43.239Z,97.66
2019-05-06T05:59:48.379Z,97.75
2019-05-06T06:02:53.523Z,96.37
2019-05-06T06:06:00.124Z,93.95
2019-05-06T06:09:06.943Z,91.53
2019-05-06T06:12:12.152Z,89.83
2019-05-06T06:15:35.137Z,89.30
2019-05-06T06:19:08.384Z,87.61
2019-05-06T06:22:17.114Z,87.93
2019-05-06T06:25:23.654Z,85.68
2019-05-06T06:28:29.227Z,84.67
2019-05-06T06:31:56.894Z,86.38
2019-05-06T06:35:19.383Z,86.14
2019-05-06T06:38:46.653Z,82.45
2019-05-06T06:41:52.021Z,84.15
2019-05-06T06:44:57.156Z,85.73
2019-05-06T06:48:03.099Z,84.32
2019-05-06T06:51:08.564Z,85.24
2019-05-06T06:54:13.696Z,87.03
2019-05-06T06:57:31.229Z,84.82
2019-05-06T07:00:57.554Z,84.27
2019-05-06T07:04:17.734Z,84.13
2019-05-06T07:07:24.271Z,80.03
2019-05-06T07:10:44.694Z,80.76
2019-05-06T07:13:54.432Z,82.87
2019-05-06T07:16:59.594Z,78.05
2019-05-06T07:20:08.085Z,77.42
2019-05-06T07:23:26.058Z,76.43
2019-05-06T07:26:36.173Z,78.70
2019-05-06T07:29:48.256Z,78.58
2019-05-06T07:32:48.142Z,78.03
2019-05-06T07:35:53.383Z,80.70
2019-05-06T07:38:58.565Z,79.61
2019-05-06T07:42:07.167Z,74.30
2019-05-06T07:45:42.363Z,76.61
2019-05-06T07:48:48.069Z,79.99
2019-05-06T07:51:53.210Z,79.41
2019-05-06T07:54:58.471Z,77.92
2019-05-06T07:58:03.829Z,76.35
2019-05-06T08:01:08.941Z,79.49
2019-05-06T08:04:18.699Z,74.10
2019-05-06T08:07:23.905Z,73.55
2019-05-06T08:10:29.085Z,74.54
2019-05-06T08:13:34.206Z,71.31
2019-05-06T08:16:45.345Z,68.05
2019-05-06T08:19:52.751Z,70.21
2019-05-06T08:23:17.260Z,69.72
2019-05-06T08:26:22.663Z,68.48
2019-05-06T08:29:27.905Z,71.18
2019-05-06T08:32:33.075Z,68.38
2019-05-06T08:35:42.546Z,68.85
2019-05-06T08:38:58.032Z,73.76
2019-05-06T08:42:03.189Z,70.53
2019-05-06T08:45:08.613Z,70.15
2019-05-06T08:48:13.852Z,73.14
2019-05-06T08:51:33.293Z,69.18
2019-05-06T08:54:43.386Z,64.07
2019-05-06T08:57:48.630Z,63.96
2019-05-06T09:01:02.715Z,61.17
2019-05-06T09:04:12.430Z,61.05
2019-05-06T09:07:13.906Z,61.97
2019-05-06T09:10:19.199Z,60.87
2019-05-06T09:13:24.444Z,61.67
2019-05-06T09:16:29.675Z,61.80
2019-05-06T09:19:34.883Z,58.75
2019-05-06T09:22:39.995Z,57.21
2019-05-06T09:25:45.156Z,61.40
2019-05-06T09:28:56.633Z,55.95
2019-05-06T09:32:05.963Z,61.14
2019-05-06T09:35:13.078Z,60.10
2019-05-06T09:38:18.448Z,60.56
2019-05-06T09:41:23.545Z,57.71
2019-05-06T09:44:28.797Z,55.16
2019-05-06T09:48:03.567Z,55.81
2019-05-06T09:51:09.114Z,53.24
2019-05-06T09:54:23.622Z,57.31
2019-05-06T09:57:33.860Z,57.18
2019-05-06T10:00:43.058Z,56.40
2019-05-06T10:03:48.338Z,54.57
2019-05-06T10:06:59.062Z,56.11
2019-05-06T10:10:02.737Z,55.89
2019-05-06T10:13:08.776Z,57.82
2019-05-06T10:16:14.109Z,55.67
2019-05-06T10:19:19.339Z,51.74
2019-05-06T10:22:24.414Z,52.28
2019-05-06T10:25:29.660Z,54.96
2019-05-06T10:28:45.785Z,54.32
2019-05-06T10:31:57.556Z,51.90
2019-05-06T10:35:02.920Z,49.85
2019-05-06T10:38:24.738Z,56.55
2019-05-06T10:41:34.793Z,53.23
2019-05-06T10:44:58.485Z,53.96
2019-05-06T10:48:03.649Z,54.60
2019-05-06T10:51:23.850Z,56.00
2019-05-06T10:54:29.053Z,53.87
2019-05-06T10:57:44.234Z,51.08
2019-05-06T11:00:52.952Z,51.93
2019-05-06T11:03:59.190Z,50.11
2019-05-06T11:07:04.533Z,47.66
2019-05-06T11:10:23.374Z,51.58
2019-05-06T11:13:16.934Z,52.03
2019-05-06T11:16:23.759Z,50.45
2019-05-06T11:19:30.330Z,51.77
2019-05-06T11:22:35.440Z,50.37
2019-05-06T11:25:42.994Z,49.94
2019-05-06T11:28:57.465Z,48.45
2019-05-06T11:32:21.861Z,51.47
2019-05-06T11:35:33.344Z,47.85
2019-05-06T11:38:38.491Z,50.55
2019-05-06T11:41:59.198Z,48.97
2019-05-06T11:44:52.856Z,49.16
2019-05-06T11:47:57.425Z,49.90
2019-05-06T11:51:04.153Z,48.45
2019-05-06T11:54:19.495Z,47.67
2019-05-06T11:57:16.464Z,48.11
2019-05-06T12:00:35.577Z,46.93
2019-05-06T12:03:38.225Z,48.36
2019-05-06T12:06:43.435Z,47.97
2019-05-06T12:09:49.639Z,49.22
2019-05-06T12:12:54.818Z,47.78
2019-05-06T12:16:02.291Z,47.33
2019-05-06T12:19:06.826Z,48.61
2019-05-06T12:22:12.575Z,48.68
2019-05-06T12:25:18.083Z,48.78
2019-05-06T12:28:23.257Z,48.74
2019-05-06T12:31:28.510Z,47.93
2019-05-06T12:34:33.724Z,48.33
2019-05-06T12:37:40.515Z,48.21
2019-05-06T12:40:45.803Z,48.56
2019-05-06T12:43:52.384Z,47.93
2019-05-06T12:47:14.859Z,48.33
2019-05-06T12:50:22.500Z,43.20
2019-05-06T12:53:27.029Z,43.82
2019-05-06T12:56:32.199Z,47.46
2019-05-06T12:59:37.348Z,43.60
2019-05-06T13:02:43.657Z,44.29
2019-05-06T13:05:49.170Z,47.33
2019-05-06T13:09:01.343Z,48.61
2019-05-06T13:12:03.868Z,47.97
2019-05-06T13:15:13.258Z,48.16
2019-05-06T13:18:18.354Z,50.61
2019-05-06T13:21:23.613Z,52.50
2019-05-06T13:24:28.786Z,49.61
2019-05-06T13:27:33.951Z,48.76
2019-05-06T13:30:39.114Z,49.18
2019-05-06T13:33:55.352Z,50.71
2019-05-06T13:37:02.006Z,49.65
2019-05-06T13:40:08.815Z,49.31
2019-05-06T13:43:44.577Z,49.50
2019-05-06T13:46:53.264Z,49.28
2019-05-06T13:49:59.849Z,51.13
2019-05-06T13:53:11.159Z,51.54
2019-05-06T13:56:12.636Z,52.06
2019-05-06T13:59:17.886Z,53.11
2019-05-06T14:02:40.249Z,56.09
2019-05-06T14:05:47.756Z,70.14
2019-05-06T14:08:57.040Z,73.64
2019-05-06T14:12:02.694Z,83.52
2019-05-06T14:15:08.305Z,80.86
2019-05-06T14:18:13.638Z,75.71
2019-05-06T14:21:18.805Z,74.07
2019-05-06T14:24:24.124Z,75.31
2019-05-06T14:27:29.377Z,77.52
2019-05-06T14:30:56.411Z,76.33
2019-05-06T14:34:02.991Z,75.92
2019-05-06T14:37:08.244Z,74.42
2019-05-06T14:40:16.745Z,75.94
2019-05-06T14:43:22.830Z,73.27
2019-05-06T14:46:48.199Z,73.56
2019-05-06T14:49:53.422Z,73.57
2019-05-06T14:52:58.555Z,71.12
2019-05-06T14:56:12.946Z,67.83
2019-05-06T14:59:17.780Z,68.25
2019-05-06T15:02:27.085Z,69.47
2019-05-06T15:05:36.229Z,70.85
2019-05-06T15:08:42.814Z,66.56
2019-05-06T15:11:47.541Z,68.46
2019-05-06T15:14:52.993Z,71.19
2019-05-06T15:17:58.187Z,73.08
2019-05-06T15:21:28.722Z,72.40
2019-05-06T15:24:13.809Z,75.59
2019-05-06T15:27:19.666Z,79.19
2019-05-06T15:30:34.082Z,80.56
2019-05-06T15:33:42.427Z,82.63
2019-05-06T15:37:02.851Z,84.61
2019-05-06T15:40:08.524Z,91.63
2019-05-06T15:43:13.703Z,94.53
2019-05-06T15:46:18.906Z,97.94
2019-05-06T15:49:24.086Z,101.14
2019-05-06T15:52:29.256Z,104.80
2019-05-06T15:55:34.450Z,108.46
2019-05-06T15:58:39.656Z,109.30
2019-05-06T16:01:44.854Z,107.03
2019-05-06T16:04:50.100Z,103.75
2019-05-06T16:07:55.317Z,108.12
2019-05-06T16:11:02.730Z,109.73
2019-05-06T16:14:07.347Z,108.60
2019-05-06T16:17:15.025Z,109.25
2019-05-06T16:20:19.505Z,110.57
2019-05-06T16:23:44.832Z,110.46
2019-05-06T16:26:52.237Z,109.45
2019-05-06T16:29:57.996Z,109.03
2019-05-06T16:33:04.082Z,107.11
2019-05-06T16:36:09.421Z,108.79
2019-05-06T16:39:14.582Z,105.61
2019-05-06T16:42:22.253Z,107.47
2019-05-06T16:45:26.471Z,105.62
2019-05-06T16:48:31.724Z,103.32
2019-05-06T16:51:36.907Z,105.70
2019-05-06T16:54:42.535Z,107.25
2019-05-06T16:57:54.152Z,106.04
2019-05-06T17:00:59.375Z,108.01
2019-05-06T17:04:25.046Z,108.67
2019-05-06T17:07:30.220Z,108.51
2019-05-06T17:10:35.371Z,109.38
2019-05-06T17:13:42.531Z,110.38
2019-05-06T17:16:47.451Z,110.04
2019-05-06T17:19:52.947Z,111.01
2019-05-06T17:22:59.109Z,110.76
2019-05-06T17:26:04.412Z,110.94
2019-05-06T17:29:22.702Z,111.86
2019-05-06T17:32:34.540Z,113.66
2019-05-06T17:35:39.745Z,115.15
2019-05-06T17:38:47.245Z,114.81
2019-05-06T17:41:52.361Z,115.53
2019-05-06T17:44:57.620Z,115.21
2019-05-06T17:48:08.592Z,115.12
2019-05-06T17:51:33.864Z,115.90
2019-05-06T17:54:39.591Z,115.92
2019-05-06T17:57:44.798Z,116.26
2019-05-06T18:00:52.260Z,117.06
2019-05-06T18:03:59.602Z,117.33
2019-05-06T18:07:04.800Z,118.28
2019-05-06T18:10:12.020Z,118.55
2019-05-06T18:13:17.072Z,118.03
2019-05-06T18:16:22.768Z,117.70
2019-05-06T18:19:28.061Z,117.57
2019-05-06T18:22:33.250Z,117.04
2019-05-06T18:25:38.476Z,117.12
2019-05-06T18:28:43.827Z,117.19
2019-05-06T18:31:49.061Z,117.45
2019-05-06T18:34:54.301Z,117.89
2019-05-06T18:37:59.501Z,118.45
2019-05-06T18:41:04.809Z,118.96
2019-05-06T18:44:12.102Z,119.00
2019-05-06T18:47:17.567Z,119.00
2019-05-06T18:50:22.820Z,119.00
2019-05-06T18:53:28.031Z,119.00
2019-05-06T18:56:33.262Z,119.00
2019-05-06T18:59:38.432Z,119.00
2019-05-06T19:02:43.795Z,119.00
2019-05-06T19:05:49.021Z,119.00
2019-05-06T19:09:02.571Z,119.00
2019-05-06T19:12:09.405Z,119.00
2019-05-06T19:15:17.706Z,119.00
2019-05-06T19:18:23.036Z,119.00
2019-05-06T19:21:28.417Z,119.00
2019-05-06T19:24:33.854Z,119.00
2019-05-06T19:27:39.432Z,119.00
2019-05-06T19:30:44.700Z,119.00
2019-05-06T19:33:49.878Z,119.00
2019-05-06T19:36:55.225Z,119.00
2019-05-06T19:40:02.689Z,119.00
2019-05-06T19:43:08.516Z,119.00
2019-05-06T19:46:13.712Z,119.00
2019-05-06T19:49:18.972Z,119.00
2019-05-06T19:52:25.123Z,119.00
2019-05-06T19:55:47.066Z,119.00
2019-05-06T19:58:53.282Z,119.00
2019-05-06T20:01:58.541Z,119.00
2019-05-06T20:05:09.500Z,119.00
2019-05-06T20:08:25.951Z,119.00
2019-05-06T20:11:35.526Z,119.00
2019-05-06T20:14:42.122Z,119.00
2019-05-06T20:17:48.466Z,119.00
2019-05-06T20:20:54.878Z,119.00
2019-05-06T20:24:02.164Z,119.00
2019-05-06T20:27:09.174Z,119.00
2019-05-06T20:30:14.747Z,119.00
2019-05-06T20:33:22.029Z,119.00
2019-05-06T20:36:26.998Z,119.00
2019-05-06T20:39:32.329Z,119.00
2019-05-06T20:42:39.014Z,119.00
2019-05-06T20:45:44.215Z,119.00
2019-05-06T20:48:49.507Z,119.00
2019-05-06T20:51:54.722Z,119.00
2019-05-06T20:54:59.933Z,119.00
2019-05-06T20:58:05.336Z,119.00
2019-05-06T21:01:12.556Z,119.00
2019-05-06T21:04:17.820Z,119.00
2019-05-06T21:07:24.570Z,119.00
2019-05-06T21:10:29.881Z,119.00
2019-05-06T21:13:35.679Z,119.00
2019-05-06T21:16:42.246Z,119.00
2019-05-06T21:19:47.726Z,119.00
2019-05-06T21:22:52.940Z,119.00
2019-05-06T21:25:58.263Z,119.00
2019-05-06T21:29:03.475Z,119.00
2019-05-06T21:32:08.642Z,119.00
2019-05-06T21:35:14.177Z,119.00
2019-05-06T21:38:19.351Z,119.00
2019-05-06T21:41:24.522Z,119.00
2019-05-06T21:44:29.687Z,119.00
2019-05-06T21:47:34.867Z,119.00
2019-05-06T21:50:39.981Z,119.00
2019-05-06T21:53:45.205Z,119.00
2019-05-06T21:56:50.406Z,119.00
2019-05-06T22:00:02.391Z,119.00
2019-05-06T22:03:04.113Z,119.00
2019-05-06T22:06:12.836Z,119.00
2019-05-06T22:09:18.038Z,119.00
2019-05-06T22:12:24.543Z,119.00
2019-05-06T22:15:32.285Z,119.00
2019-05-06T22:18:36.858Z,119.00
2019-05-06T22:21:58.855Z,119.00
2019-05-06T22:25:04.141Z,119.00
2019-05-06T22:28:09.351Z,119.00
2019-05-06T22:31:14.471Z,119.00
2019-05-06T22:34:21.715Z,119.00
2019-05-06T22:37:26.508Z,119.00
2019-05-06T22:40:32.713Z,119.00
2019-05-06T22:43:37.982Z,119.00
2019-05-06T22:46:43.153Z,119.00
2019-05-06T22:49:52.356Z,119.00
2019-05-06T22:52:55.251Z,119.00
2019-05-06T22:56:03.697Z,119.00
2019-05-06T22:59:08.946Z,119.00
2019-05-06T23:02:29.537Z,119.00
2019-05-06T23:05:36.761Z,119.00
2019-05-06T23:08:43.288Z,119.00
2019-05-06T23:11:48.641Z,119.00
2019-05-06T23:14:53.847Z,119.00
2019-05-06T23:17:59.096Z,119.00
2019-05-06T23:21:04.261Z,119.00
2019-05-06T23:24:09.447Z,119.00
2019-05-06T23:27:14.567Z,119.00
2019-05-06T23:30:19.787Z,119.00
2019-05-06T23:33:25.101Z,119.00
2019-05-06T23:36:52.910Z,119.00
2019-05-06T23:40:42.771Z,119.00
2019-05-06T23:44:23.502Z,119.00
2019-05-06T23:48:04.515Z,119.00
2019-05-06T23:51:45.278Z,119.00
2019-05-06T23:55:26.006Z,119.00
2019-05-06T23:58:32.256Z,119.00
